Time;durP1;ratioP1;P1;durP2;ratioP2;P2;SDS_P1;SDS_P2;PMS_P1;PMS_P2;Temp;Humidity;BMP_temperature;BMP_pressure;BME280_temperature;BME280_humidity;BME280_pressure;Samples;Min_cycle;Max_cycle;Signal;HPM_P1;HPM_P2
2021/08/11 00:00:29;;;;;;;11.27;9.37;;;19.80;99.90;;;;;;4958692;28;20471;-93
2021/08/11 00:03:02;;;;;;;10.30;9.03;;;19.90;99.90;;;;;;4955896;29;20468;-93
2021/08/11 00:05:43;;;;;;;10.90;9.80;;;19.80;99.90;;;;;;4951032;29;20457;-93
2021/08/11 00:08:29;;;;;;;12.43;9.33;;;19.80;99.90;;;;;;4944008;29;20542;-93
2021/08/11 00:11:08;;;;;;;11.10;8.90;;;19.80;99.90;;;;;;4948064;29;20459;-93
2021/08/11 00:16:36;;;;;;;9.30;8.40;;;19.70;99.90;;;;;;4939181;29;20447;-94
2021/08/11 00:19:20;;;;;;;10.70;9.43;;;19.60;99.90;;;;;;4944087;29;20466;-93
2021/08/11 00:21:55;;;;;;;10.70;9.30;;;19.70;99.90;;;;;;4945158;29;20461;-93
2021/08/11 00:24:32;;;;;;;10.43;9.33;;;19.60;99.90;;;;;;4949396;29;20448;-93
2021/08/11 00:27:16;;;;;;;10.43;8.90;;;19.60;99.90;;;;;;4948321;29;20447;-93
2021/08/11 00:29:48;;;;;;;9.00;8.10;;;19.50;99.90;;;;;;4945714;29;20811;-93
2021/08/11 00:32:21;;;;;;;8.97;7.37;;;19.40;99.90;;;;;;4950438;29;20515;-92
2021/08/11 00:37:37;;;;;;;11.00;9.87;;;19.40;99.90;;;;;;4943519;29;20461;-93
2021/08/11 00:40:18;;;;;;;9.10;7.93;;;19.40;99.90;;;;;;4945998;29;20796;-93
2021/08/11 00:45:44;;;;;;;12.50;8.63;;;19.30;99.90;;;;;;4945092;29;20458;-93
2021/08/11 00:48:16;;;;;;;10.43;9.37;;;19.30;99.90;;;;;;4956313;29;20452;-93
2021/08/11 00:50:47;;;;;;;8.50;7.63;;;19.30;99.90;;;;;;4954543;29;20462;-93
2021/08/11 00:56:21;;;;;;;9.60;8.10;;;19.40;99.90;;;;;;4951504;29;20434;-92
2021/08/11 00:58:53;;;;;;;15.90;9.20;;;19.30;99.90;;;;;;4959060;28;20438;-93
2021/08/11 01:01:26;;;;;;;11.00;9.27;;;19.20;99.90;;;;;;4970276;28;20493;-92
2021/08/11 01:04:06;;;;;;;11.70;9.17;;;19.20;99.90;;;;;;4963682;29;20447;-92
2021/08/11 01:06:36;;;;;;;12.67;8.57;;;19.20;99.90;;;;;;4970712;28;20460;-93
2021/08/11 01:09:15;;;;;;;13.60;10.03;;;19.20;99.90;;;;;;4954967;29;20454;-92
2021/08/11 01:11:58;;;;;;;8.00;7.13;;;19.10;99.90;;;;;;4946569;29;20462;-92
2021/08/11 01:14:26;;;;;;;8.80;7.43;;;19.20;99.90;;;;;;4943795;29;20483;-93
2021/08/11 01:17:14;;;;;;;9.37;7.20;;;19.20;99.90;;;;;;4950653;29;20443;-93
2021/08/11 01:19:46;;;;;;;8.33;7.53;;;19.20;99.90;;;;;;4950142;29;20455;-93
2021/08/11 01:22:45;;;;;;;;;;;;;;;;;;;;;
2021/08/11 01:25:18;;;;;;;9.80;7.70;;;19.20;99.90;;;;;;4941712;29;20534;-93
2021/08/11 01:28:06;;;;;;;19.27;8.20;;;19.20;99.90;;;;;;4958881;28;20493;-93
2021/08/11 01:30:46;;;;;;;12.67;7.40;;;19.20;99.90;;;;;;4973697;29;20412;-93
2021/08/11 01:33:45;;;;;;;9.33;8.03;;;19.20;99.90;;;;;;4978468;28;20464;-94
2021/08/11 01:39:16;;;;;;;11.33;10.17;;;19.20;99.90;;;;;;4968433;28;20478;-94
2021/08/11 01:42:01;;;;;;;8.97;7.97;;;19.10;99.90;;;;;;4974763;28;20514;-92
2021/08/11 01:44:50;;;;;;;9.63;8.63;;;19.10;99.90;;;;;;4965866;28;20455;-93
2021/08/11 01:47:32;;;;;;;16.57;9.90;;;19.00;99.90;;;;;;4971539;28;20440;-93
2021/08/11 01:50:11;;;;;;;12.90;10.70;;;19.00;99.90;;;;;;4960349;29;20536;-92
2021/08/11 01:53:05;;;;;;;11.33;10.20;;;19.00;99.90;;;;;;4951636;29;20565;-93
2021/08/11 01:55:59;;;;;;;10.60;8.60;;;18.90;99.90;;;;;;4947161;29;20478;-92
2021/08/11 01:58:31;;;;;;;14.27;8.90;;;18.90;99.90;;;;;;4939719;29;20506;-92
2021/08/11 02:01:04;;;;;;;11.27;9.20;;;18.70;99.90;;;;;;4946983;29;20463;-93
2021/08/11 02:03:43;;;;;;;9.47;8.50;;;18.60;99.90;;;;;;4953893;29;20436;-92
2021/08/11 02:06:14;;;;;;;10.50;9.50;;;18.60;99.90;;;;;;4955283;29;20455;-92
2021/08/11 02:08:46;;;;;;;9.60;8.63;;;18.50;99.90;;;;;;4948813;29;20475;-93
2021/08/11 02:14:10;;;;;;;9.10;8.20;;;18.50;99.90;;;;;;4944076;29;20544;-93
2021/08/11 02:16:43;;;;;;;11.00;7.33;;;18.40;99.90;;;;;;4958573;29;20473;-93
2021/08/11 02:19:13;;;;;;;12.73;8.30;;;18.40;99.90;;;;;;4948390;29;20476;-92
2021/08/11 02:21:48;;;;;;;8.70;7.77;;;18.30;99.90;;;;;;4946084;28;20450;-92
2021/08/11 02:24:27;;;;;;;11.23;8.60;;;18.20;99.90;;;;;;4944515;29;20453;-93
2021/08/11 02:27:06;;;;;;;12.03;7.50;;;18.20;99.90;;;;;;4946291;29;20515;-92
2021/08/11 02:30:03;;;;;;;11.33;7.53;;;18.20;99.90;;;;;;4948027;28;20448;-93
2021/08/11 02:32:44;;;;;;;10.93;9.10;;;18.10;99.90;;;;;;4943605;29;20462;-92
2021/08/11 02:35:18;;;;;;;11.10;8.50;;;18.00;99.90;;;;;;4944903;29;20460;-93
2021/08/11 02:38:07;;;;;;;11.30;9.00;;;18.00;99.90;;;;;;4947065;29;20479;-93
2021/08/11 02:40:39;;;;;;;9.97;8.50;;;18.00;99.90;;;;;;4945970;29;20438;-92
2021/08/11 02:43:17;;;;;;;10.13;8.30;;;18.00;99.90;;;;;;4945344;29;20514;-91
2021/08/11 02:45:55;;;;;;;9.80;8.73;;;17.90;99.90;;;;;;4947688;29;20466;-92
2021/08/11 02:48:23;;;;;;;8.53;7.63;;;17.90;99.90;;;;;;4944065;29;20507;-92
2021/08/11 02:50:54;;;;;;;12.77;8.20;;;17.90;99.90;;;;;;4946611;29;20466;-92
2021/08/11 02:53:28;;;;;;;11.90;8.37;;;17.90;99.90;;;;;;4951602;29;20479;-92
2021/08/11 02:55:58;;;;;;;10.83;9.83;;;17.90;99.90;;;;;;4948643;29;20477;-92
2021/08/11 02:58:25;;;;;;;11.27;8.33;;;17.90;99.90;;;;;;4944171;28;20533;-92
2021/08/11 03:00:53;;;;;;;10.17;9.07;;;17.90;99.90;;;;;;4949736;29;20449;-93
2021/08/11 03:03:21;;;;;;;10.83;9.10;;;17.90;99.90;;;;;;4946012;29;20451;-93
2021/08/11 03:05:49;;;;;;;9.97;8.87;;;17.90;99.90;;;;;;4946244;29;20458;-93
2021/08/11 03:08:18;;;;;;;9.73;8.73;;;17.90;99.90;;;;;;4948205;28;20469;-91
2021/08/11 03:10:47;;;;;;;11.00;8.20;;;17.80;99.90;;;;;;4950620;29;20456;-91
2021/08/11 03:13:16;;;;;;;14.73;8.93;;;17.80;99.90;;;;;;4952181;28;20475;-92
2021/08/11 03:15:53;;;;;;;11.67;8.90;;;17.80;99.90;;;;;;4966318;28;20607;-92
2021/08/11 03:18:21;;;;;;;13.43;9.40;;;17.80;99.90;;;;;;4966469;29;20979;-92
2021/08/11 03:20:50;;;;;;;13.30;8.40;;;17.70;99.90;;;;;;4959725;29;20445;-92
2021/08/11 03:23:18;;;;;;;10.53;9.43;;;17.70;99.90;;;;;;4951877;29;20441;-91
2021/08/11 03:25:48;;;;;;;9.37;7.90;;;17.60;99.90;;;;;;4951014;29;20453;-92
2021/08/11 03:28:19;;;;;;;9.40;8.60;;;17.60;99.90;;;;;;4950830;29;20470;-92
2021/08/11 03:30:48;;;;;;;12.60;8.47;;;17.60;99.90;;;;;;4957504;29;20424;-93
2021/08/11 03:33:22;;;;;;;10.43;8.70;;;17.60;99.90;;;;;;4974561;28;20478;-92
2021/08/11 03:35:56;;;;;;;11.53;8.60;;;17.60;99.90;;;;;;4969790;28;20421;-93
2021/08/11 03:38:22;;;;;;;11.67;9.30;;;17.60;99.90;;;;;;4969187;23;20506;-93
2021/08/11 03:40:51;;;;;;;10.90;9.70;;;17.60;99.90;;;;;;4953131;29;20457;-94
2021/08/11 03:43:17;;;;;;;12.87;9.93;;;17.60;99.90;;;;;;4973669;28;20433;-94
2021/08/11 03:45:44;;;;;;;10.80;9.70;;;17.60;99.90;;;;;;4970370;29;20449;-94
2021/08/11 03:48:11;;;;;;;12.70;8.80;;;17.50;99.90;;;;;;4967789;28;20478;-94
2021/08/11 03:50:38;;;;;;;10.50;8.20;;;17.50;99.90;;;;;;4954308;29;20471;-93
2021/08/11 03:53:05;;;;;;;9.70;8.70;;;17.50;99.90;;;;;;4948397;29;20455;-92
2021/08/11 03:55:32;;;;;;;8.80;7.57;;;17.50;99.90;;;;;;4948281;29;20489;-92
2021/08/11 03:58:01;;;;;;;10.40;9.30;;;17.50;99.90;;;;;;4952898;29;20812;-93
2021/08/11 04:00:27;;;;;;;10.40;9.40;;;17.50;99.90;;;;;;4951940;29;20450;-92
2021/08/11 04:02:54;;;;;;;13.30;9.13;;;17.40;99.90;;;;;;4948105;29;20454;-93
2021/08/11 04:05:21;;;;;;;13.47;8.80;;;17.50;99.90;;;;;;4954892;29;20442;-93
2021/08/11 04:07:48;;;;;;;10.20;9.20;;;17.40;99.90;;;;;;4946115;28;20438;-93
2021/08/11 04:10:15;;;;;;;14.70;9.90;;;17.50;99.90;;;;;;4947963;29;20977;-93
2021/08/11 04:12:42;;;;;;;9.63;8.70;;;17.40;99.90;;;;;;4960383;29;20459;-92
2021/08/11 04:15:11;;;;;;;10.17;8.20;;;17.50;99.90;;;;;;4955538;29;20488;-92
2021/08/11 04:17:38;;;;;;;9.23;8.40;;;17.50;99.90;;;;;;4948505;29;20436;-92
2021/08/11 04:20:06;;;;;;;11.53;8.70;;;17.50;99.90;;;;;;4946258;29;20982;-94
2021/08/11 04:22:33;;;;;;;14.30;9.40;;;17.50;99.90;;;;;;4946641;29;20453;-94
2021/08/11 04:25:00;;;;;;;9.80;8.80;;;17.50;99.90;;;;;;4950260;28;20446;-92
2021/08/11 04:27:27;;;;;;;13.87;9.97;;;17.50;99.90;;;;;;4945956;29;20499;-94
2021/08/11 04:29:54;;;;;;;19.17;9.40;;;17.50;99.90;;;;;;4944392;29;20477;-91
2021/08/11 04:32:22;;;;;;;11.03;8.43;;;17.50;99.90;;;;;;4947292;29;20455;-91
2021/08/11 04:34:50;;;;;;;12.83;9.10;;;17.50;99.90;;;;;;4950511;29;20482;-91
2021/08/11 04:37:17;;;;;;;10.30;9.17;;;17.50;99.90;;;;;;4944119;29;20443;-92
2021/08/11 04:39:44;;;;;;;13.30;9.47;;;17.50;99.90;;;;;;4947175;28;20488;-91
2021/08/11 04:42:10;;;;;;;9.70;8.70;;;17.50;99.90;;;;;;4944076;29;20460;-91
2021/08/11 04:44:37;;;;;;;10.97;7.80;;;17.50;99.90;;;;;;4953554;29;20451;-92
2021/08/11 04:47:04;;;;;;;10.30;7.70;;;17.50;99.90;;;;;;4955825;29;20442;-91
2021/08/11 04:49:33;;;;;;;9.53;8.20;;;17.40;99.90;;;;;;4949386;29;20475;-92
2021/08/11 04:52:00;;;;;;;10.43;8.97;;;17.40;99.90;;;;;;4948686;29;20445;-92
2021/08/11 04:54:27;;;;;;;11.70;9.83;;;17.40;99.90;;;;;;4944830;29;20492;-92
2021/08/11 05:00:03;;;;;;;9.37;8.23;;;17.60;99.90;;;;;;4946104;28;20472;-91
2021/08/11 05:02:50;;;;;;;9.80;8.80;;;17.60;99.90;;;;;;4945605;29;20433;-92
2021/08/11 05:05:24;;;;;;;9.43;8.47;;;17.90;99.90;;;;;;4946749;29;20579;-92
2021/08/11 05:07:57;;;;;;;11.10;9.07;;;17.90;99.90;;;;;;4945090;28;20427;-91
2021/08/11 05:10:54;;;;;;;;;;;;;;;;;;;;;
2021/08/11 05:17:06;;;;;;;11.13;8.90;;;18.30;99.90;;;;;;4957618;29;20468;-91
2021/08/11 05:22:57;;;;;;;13.67;9.07;;;18.90;99.90;;;;;;4957561;28;20451;-93
2021/08/11 05:26:17;;;;;;;13.33;7.83;;;19.30;99.90;;;;;;4958413;28;20448;-93
2021/08/11 05:29:04;;;;;;;;;;;;;;;;;;;;;
2021/08/11 05:34:35;;;;;;;11.50;8.63;;;20.60;99.90;;;;;;4900058;29;20485;-93
2021/08/11 05:37:32;;;;;;;13.00;7.80;;;20.90;99.90;;;;;;4933019;29;20442;-93
2021/08/11 05:40:29;;;;;;;10.93;8.27;;;21.40;99.90;;;;;;4950467;29;20474;-92
2021/08/11 05:43:08;;;;;;;8.47;7.50;;;21.60;99.90;;;;;;4949401;29;20656;-93
2021/08/11 05:45:38;;;;;;;9.33;8.37;;;21.80;99.90;;;;;;4948843;29;20443;-93
2021/08/11 05:48:15;;;;;;;9.37;7.93;;;21.90;99.90;;;;;;4944831;28;20480;-93
2021/08/11 05:54:33;;;;;;;15.20;8.13;;;22.10;99.90;;;;;;4958824;29;20828;-92
2021/08/11 05:57:38;;;;;;;9.97;7.33;;;22.40;99.90;;;;;;4939246;29;20447;-91
2021/08/11 06:00:08;;;;;;;8.90;7.97;;;22.90;99.90;;;;;;4959097;28;21209;-88
2021/08/11 06:02:35;;;;;;;8.50;7.70;;;23.50;99.90;;;;;;4947491;29;20452;-88
2021/08/11 06:05:02;;;;;;;9.70;7.80;;;23.90;99.90;;;;;;4963567;29;20907;-88
2021/08/11 06:07:28;;;;;;;9.33;8.40;;;24.20;99.40;;;;;;4961251;29;20442;-85
2021/08/11 06:09:55;;;;;;;9.83;8.37;;;24.30;98.50;;;;;;4945677;29;21034;-85
2021/08/11 06:12:23;;;;;;;10.43;8.43;;;24.40;98.20;;;;;;4943503;29;20446;-85
2021/08/11 06:14:50;;;;;;;9.83;8.93;;;24.60;97.70;;;;;;4958189;29;20714;-85
2021/08/11 06:17:17;;;;;;;12.03;8.33;;;24.80;97.20;;;;;;4961477;29;20453;-85
2021/08/11 06:19:46;;;;;;;11.43;7.10;;;25.10;96.80;;;;;;4953446;29;20483;-85
2021/08/11 06:22:13;;;;;;;10.73;7.70;;;25.20;95.90;;;;;;4957280;28;20460;-84
2021/08/11 06:24:40;;;;;;;8.77;7.97;;;25.90;95.30;;;;;;4954347;29;20448;-85
2021/08/11 06:27:07;;;;;;;9.47;7.60;;;25.80;94.30;;;;;;4957379;29;20461;-85
2021/08/11 06:29:35;;;;;;;9.60;8.20;;;25.20;94.70;;;;;;4956050;29;20479;-86
2021/08/11 06:32:03;;;;;;;10.27;9.37;;;25.30;95.40;;;;;;4953280;29;20469;-85
2021/08/11 06:34:30;;;;;;;13.80;8.33;;;25.20;94.90;;;;;;4955210;29;20910;-86
2021/08/11 06:36:57;;;;;;;9.53;8.60;;;24.80;95.20;;;;;;4943681;29;20447;-85
2021/08/11 06:39:24;;;;;;;11.73;8.27;;;24.10;96.60;;;;;;4942576;29;20589;-86
2021/08/11 06:41:51;;;;;;;10.10;7.80;;;24.00;97.00;;;;;;4944736;29;20957;-85
2021/08/11 06:44:18;;;;;;;9.43;7.43;;;23.70;97.50;;;;;;4945503;29;20528;-87
2021/08/11 06:46:46;;;;;;;13.80;8.30;;;23.50;98.00;;;;;;4937668;29;20456;-85
2021/08/11 06:49:12;;;;;;;11.93;8.30;;;23.10;98.50;;;;;;4941427;29;20989;-86
2021/08/11 06:51:39;;;;;;;10.53;8.80;;;22.80;99.90;;;;;;4938567;29;20451;-85
2021/08/11 06:54:10;;;;;;;12.50;8.80;;;22.80;99.90;;;;;;4938951;29;20459;-85
2021/08/11 06:56:36;;;;;;;10.50;7.73;;;22.80;99.80;;;;;;4939431;29;20826;-85
2021/08/11 06:59:03;;;;;;;8.40;7.67;;;22.60;99.90;;;;;;4943782;29;20480;-86
2021/08/11 07:01:30;;;;;;;9.90;8.90;;;22.40;99.90;;;;;;4973568;28;20450;-85
2021/08/11 07:03:58;;;;;;;10.47;8.17;;;22.30;99.90;;;;;;4982766;28;20453;-85
2021/08/11 07:06:25;;;;;;;9.37;8.47;;;22.20;99.90;;;;;;4972519;28;20448;-85
2021/08/11 07:08:51;;;;;;;10.50;9.30;;;22.00;99.90;;;;;;4956838;29;20818;-85
2021/08/11 07:11:18;;;;;;;10.47;9.27;;;21.90;99.90;;;;;;4959583;29;20457;-84
2021/08/11 07:13:45;;;;;;;10.30;9.43;;;21.80;99.90;;;;;;4957893;29;20537;-85
2021/08/11 07:16:12;;;;;;;12.17;9.00;;;21.80;99.90;;;;;;4957149;29;20492;-85
2021/08/11 07:18:38;;;;;;;9.97;8.90;;;21.70;99.90;;;;;;4956889;29;20483;-85
2021/08/11 07:21:06;;;;;;;11.93;9.80;;;21.80;99.90;;;;;;4956860;29;20445;-85
2021/08/11 07:23:33;;;;;;;11.83;10.30;;;22.60;99.90;;;;;;4957091;29;20447;-86
2021/08/11 07:26:00;;;;;;;11.63;10.43;;;23.80;99.90;;;;;;4956635;29;20464;-85
2021/08/11 07:28:26;;;;;;;11.43;9.13;;;25.30;98.30;;;;;;4956651;29;21001;-85
2021/08/11 07:30:53;;;;;;;8.83;7.93;;;26.90;95.30;;;;;;4971596;29;20445;-87
2021/08/11 07:33:23;;;;;;;9.07;7.83;;;28.10;92.30;;;;;;4956952;29;20457;-85
2021/08/11 07:35:49;;;;;;;8.40;7.60;;;27.90;90.80;;;;;;4937827;29;20492;-86
2021/08/11 07:38:18;;;;;;;7.57;6.83;;;28.00;90.70;;;;;;4938185;29;20480;-88
2021/08/11 07:40:45;;;;;;;7.23;6.60;;;28.40;90.30;;;;;;4938312;29;20492;-86
2021/08/11 07:43:12;;;;;;;12.33;6.73;;;29.20;86.40;;;;;;4937422;29;20892;-86
2021/08/11 07:45:38;;;;;;;9.40;7.03;;;29.40;85.00;;;;;;4952909;29;20445;-85
2021/08/11 07:48:06;;;;;;;13.27;7.40;;;30.40;83.40;;;;;;4956417;29;20498;-87
2021/08/11 07:50:35;;;;;;;9.33;8.43;;;31.50;78.00;;;;;;4957793;29;20460;-86
2021/08/11 07:53:02;;;;;;;6.87;6.30;;;32.70;73.10;;;;;;4979556;29;20429;-87
2021/08/11 07:55:30;;;;;;;8.60;6.30;;;33.40;68.60;;;;;;4966554;29;20484;-86
2021/08/11 07:57:57;;;;;;;8.30;6.50;;;33.70;66.40;;;;;;4956134;29;20458;-88
2021/08/11 08:00:23;;;;;;;11.10;7.80;;;33.80;64.00;;;;;;4957519;28;20827;-88
2021/08/11 08:02:50;;;;;;;9.77;7.80;;;33.60;63.50;;;;;;4937655;29;20453;-86
2021/08/11 08:05:18;;;;;;;7.97;7.20;;;32.90;66.10;;;;;;4936868;29;20461;-87
2021/08/11 08:07:44;;;;;;;9.67;7.40;;;33.70;63.10;;;;;;4936798;29;20449;-86
2021/08/11 08:10:12;;;;;;;9.70;7.57;;;33.90;62.50;;;;;;4936740;29;20884;-86
2021/08/11 08:12:42;;;;;;;12.27;7.27;;;33.70;62.60;;;;;;4937092;29;20445;-87
2021/08/11 08:15:10;;;;;;;6.60;6.00;;;34.30;61.10;;;;;;4936815;29;20872;-87
2021/08/11 08:17:37;;;;;;;7.60;5.70;;;34.20;61.20;;;;;;4937058;29;20449;-86
2021/08/11 08:20:05;;;;;;;6.23;5.63;;;34.10;60.80;;;;;;4936809;29;20531;-87
2021/08/11 08:22:32;;;;;;;7.53;6.10;;;34.20;59.80;;;;;;4941422;29;20449;-86
2021/08/11 08:24:58;;;;;;;7.30;5.77;;;34.50;59.80;;;;;;4944724;29;20446;-87
2021/08/11 08:27:27;;;;;;;6.70;5.77;;;35.60;57.90;;;;;;4936717;29;20521;-87
2021/08/11 08:29:57;;;;;;;6.27;5.67;;;36.00;56.50;;;;;;4947169;29;20479;-87
2021/08/11 08:32:26;;;;;;;6.67;6.07;;;36.40;55.30;;;;;;4955411;29;20713;-86
2021/08/11 08:34:53;;;;;;;7.63;5.80;;;36.00;55.00;;;;;;4955459;29;20480;-86
2021/08/11 08:37:30;;;;;;;6.90;6.23;;;35.10;56.20;;;;;;4955567;29;20468;-86
2021/08/11 08:39:58;;;;;;;5.87;5.37;;;34.60;56.40;;;;;;4955425;29;20476;-87
2021/08/11 08:42:25;;;;;;;8.60;5.53;;;34.90;56.30;;;;;;4954270;29;20448;-87
2021/08/11 08:44:52;;;;;;;7.97;5.43;;;35.40;56.60;;;;;;4955274;29;20448;-87
2021/08/11 08:47:21;;;;;;;8.30;6.20;;;37.20;53.20;;;;;;4956148;29;20461;-88
2021/08/11 08:49:49;;;;;;;7.30;5.53;;;38.10;51.70;;;;;;4959998;29;20596;-87
2021/08/11 08:52:17;;;;;;;8.20;5.10;;;38.20;50.60;;;;;;4959000;29;20456;-87
2021/08/11 08:54:46;;;;;;;4.93;4.53;;;38.00;50.20;;;;;;4956127;29;20954;-86
2021/08/11 08:57:12;;;;;;;7.73;5.03;;;37.40;51.30;;;;;;4950726;29;20458;-87
2021/08/11 08:59:43;;;;;;;6.10;4.90;;;37.90;50.00;;;;;;4935882;29;20476;-86
2021/08/11 09:02:10;;;;;;;5.60;5.00;;;38.70;49.40;;;;;;4935817;29;20458;-87
2021/08/11 09:04:39;;;;;;;5.20;4.70;;;39.30;47.90;;;;;;4934884;29;20449;-87
2021/08/11 09:07:07;;;;;;;4.40;4.00;;;39.60;47.40;;;;;;4935746;29;20456;-87
2021/08/11 09:09:36;;;;;;;6.50;5.00;;;39.90;46.90;;;;;;4935425;29;20481;-86
2021/08/11 09:12:11;;;;;;;4.53;4.13;;;39.70;46.40;;;;;;4935713;29;20457;-88
2021/08/11 09:14:41;;;;;;;5.17;4.67;;;40.10;46.00;;;;;;4935970;29;20521;-87
2021/08/11 09:17:09;;;;;;;4.80;4.40;;;39.10;46.60;;;;;;4936141;29;20485;-87
2021/08/11 09:19:45;;;;;;;6.93;5.07;;;39.50;46.60;;;;;;4941955;29;20476;-87
2021/08/11 09:22:15;;;;;;;8.77;4.63;;;39.30;47.00;;;;;;4960534;29;20441;-90
2021/08/11 09:24:42;;;;;;;6.27;5.60;;;39.70;46.20;;;;;;4979725;29;20444;-91
2021/08/11 09:27:21;;;;;;;7.17;4.70;;;40.10;45.80;;;;;;4966960;29;20472;-87
2021/08/11 09:30:06;;;;;;;7.27;4.90;;;38.60;46.70;;;;;;4948171;29;20473;-87
2021/08/11 09:32:33;;;;;;;5.87;5.37;;;39.70;45.60;;;;;;4945805;29;20442;-87
2021/08/11 09:35:06;;;;;;;5.77;4.77;;;40.50;44.30;;;;;;4936923;29;20462;-86
2021/08/11 09:37:40;;;;;;;5.33;4.83;;;41.50;43.50;;;;;;4939828;29;20552;-85
2021/08/11 09:40:11;;;;;;;7.67;5.57;;;42.00;42.50;;;;;;4935887;29;20469;-84
2021/08/11 09:42:38;;;;;;;5.57;4.60;;;42.60;41.30;;;;;;4936629;29;20540;-83
2021/08/11 09:45:08;;;;;;;5.53;5.07;;;42.20;41.30;;;;;;4936232;29;20450;-84
2021/08/11 09:47:35;;;;;;;6.00;4.67;;;41.60;41.30;;;;;;4939145;29;20458;-83
2021/08/11 09:50:07;;;;;;;5.47;4.97;;;41.30;42.20;;;;;;4935005;29;20816;-85
2021/08/11 09:52:47;;;;;;;5.67;5.07;;;41.10;43.20;;;;;;4951721;29;20456;-85
2021/08/11 09:55:14;;;;;;;4.90;4.50;;;41.20;43.10;;;;;;4954514;29;20500;-85
2021/08/11 09:57:41;;;;;;;4.50;4.10;;;41.80;41.10;;;;;;4954670;29;20456;-86
2021/08/11 10:00:12;;;;;;;5.80;4.70;;;41.10;41.00;;;;;;4970881;29;20456;-85
2021/08/11 10:02:40;;;;;;;5.60;4.70;;;41.50;41.40;;;;;;4960671;29;20503;-85
2021/08/11 10:05:10;;;;;;;5.50;5.00;;;39.70;42.50;;;;;;4955487;29;20484;-83
2021/08/11 10:07:37;;;;;;;5.37;4.87;;;38.00;45.40;;;;;;4954678;29;20495;-83
2021/08/11 10:10:06;;;;;;;6.40;5.63;;;36.60;48.30;;;;;;4954684;29;20472;-85
2021/08/11 10:12:34;;;;;;;5.43;4.93;;;35.20;49.80;;;;;;4954365;29;20804;-86
2021/08/11 10:15:03;;;;;;;5.17;4.77;;;33.80;52.10;;;;;;4954113;29;20461;-83
2021/08/11 10:17:34;;;;;;;6.67;5.67;;;32.60;55.00;;;;;;4954315;29;20535;-84
2021/08/11 10:20:03;;;;;;;5.30;4.77;;;32.20;56.70;;;;;;4943250;29;20481;-86
2021/08/11 10:22:32;;;;;;;5.30;4.77;;;31.80;56.30;;;;;;4938993;29;20453;-85
2021/08/11 10:25:00;;;;;;;7.30;4.20;;;32.70;56.30;;;;;;4942429;29;20541;-83
2021/08/11 10:27:27;;;;;;;5.43;4.90;;;33.70;54.30;;;;;;4939587;29;20460;-84
2021/08/11 10:29:54;;;;;;;6.60;5.00;;;33.50;53.30;;;;;;4938927;29;20476;-84
2021/08/11 10:32:22;;;;;;;11.53;5.07;;;33.10;54.30;;;;;;4939375;29;20454;-84
2021/08/11 10:34:49;;;;;;;6.17;5.57;;;33.00;55.20;;;;;;4939934;29;20453;-84
2021/08/11 10:37:15;;;;;;;5.07;4.70;;;32.90;55.70;;;;;;4938955;29;20489;-84
2021/08/11 10:39:43;;;;;;;6.87;5.07;;;31.80;56.30;;;;;;4940774;29;20477;-84
2021/08/11 10:42:12;;;;;;;5.83;4.73;;;31.00;58.30;;;;;;4948710;29;20449;-84
2021/08/11 10:44:39;;;;;;;5.37;4.83;;;31.50;58.70;;;;;;4949962;29;20532;-84
2021/08/11 10:47:09;;;;;;;5.60;4.67;;;33.80;54.70;;;;;;4943492;29;20465;-84
2021/08/11 10:49:51;;;;;;;5.10;4.70;;;35.00;52.50;;;;;;4939544;29;20473;-84
2021/08/11 10:52:19;;;;;;;6.80;5.13;;;33.90;53.40;;;;;;4938936;29;20460;-85
2021/08/11 10:54:54;;;;;;;6.00;5.07;;;33.10;55.20;;;;;;4938667;29;20469;-85
2021/08/11 10:57:47;;;;;;;5.27;4.83;;;32.70;56.10;;;;;;4938833;29;20485;-85
2021/08/11 11:00:42;;;;;;;6.40;5.40;;;33.40;55.30;;;;;;4937900;29;20943;-85
2021/08/11 11:03:24;;;;;;;5.40;5.00;;;33.00;55.60;;;;;;4938523;29;20457;-84
2021/08/11 11:05:54;;;;;;;5.93;5.20;;;32.30;56.80;;;;;;4938513;29;20826;-83
2021/08/11 11:08:34;;;;;;;8.10;4.97;;;31.50;58.30;;;;;;4938824;29;20465;-85
2021/08/11 11:11:37;;;;;;;8.10;5.80;;;30.50;60.10;;;;;;4937938;29;20460;-83
2021/08/11 11:14:06;;;;;;;6.77;5.33;;;30.30;62.10;;;;;;4938657;29;20536;-84
2021/08/11 11:17:02;;;;;;;5.27;4.70;;;31.60;60.40;;;;;;4952931;29;21001;-85
2021/08/11 11:19:28;;;;;;;8.40;6.37;;;35.00;55.40;;;;;;4955129;29;20536;-84
2021/08/11 11:21:55;;;;;;;5.80;5.23;;;36.70;50.80;;;;;;4939460;29;20450;-84
2021/08/11 11:24:50;;;;;;;5.57;4.77;;;36.10;49.80;;;;;;4954048;29;20445;-85
2021/08/11 11:27:58;;;;;;;6.60;4.77;;;34.60;53.00;;;;;;4938351;29;20548;-84
2021/08/11 11:30:37;;;;;;;5.70;5.20;;;36.10;51.10;;;;;;4939000;28;20522;-84
2021/08/11 11:33:32;;;;;;;6.13;4.67;;;38.00;47.40;;;;;;4938347;29;20453;-84
2021/08/11 11:36:25;;;;;;;7.60;5.73;;;38.60;46.30;;;;;;4936866;29;21158;-84
2021/08/11 11:39:09;;;;;;;6.30;5.70;;;40.70;43.20;;;;;;4937753;29;20485;-86
2021/08/11 11:41:36;;;;;;;5.13;4.73;;;42.10;42.10;;;;;;4960510;29;20450;-84
2021/08/11 11:44:52;;;;;;;6.50;4.57;;;41.90;41.10;;;;;;4953327;29;20444;-90
2021/08/11 11:48:10;;;;;;;4.83;4.40;;;40.80;41.90;;;;;;4903204;29;20469;-89
2021/08/11 11:50:45;;;;;;;5.63;5.00;;;38.30;45.10;;;;;;4938747;29;20454;-90
2021/08/11 11:53:23;;;;;;;5.50;5.10;;;37.90;46.60;;;;;;4940881;29;20460;-90
2021/08/11 11:55:50;;;;;;;5.63;5.13;;;38.10;47.20;;;;;;4941320;29;20549;-90
2021/08/11 11:58:19;;;;;;;6.07;5.50;;;39.30;46.00;;;;;;4941356;29;20469;-90
2021/08/11 12:00:47;;;;;;;4.77;4.20;;;40.30;43.50;;;;;;4941417;29;20553;-90
2021/08/11 12:03:15;;;;;;;6.07;5.50;;;41.80;41.70;;;;;;4941787;29;20461;-90
2021/08/11 12:05:47;;;;;;;6.03;5.20;;;42.70;40.60;;;;;;4940489;29;20458;-91
2021/08/11 12:08:17;;;;;;;5.43;4.93;;;43.50;38.90;;;;;;4955809;29;20524;-89
2021/08/11 12:10:46;;;;;;;4.63;4.20;;;43.50;38.10;;;;;;4961835;29;20450;-89
2021/08/11 12:13:13;;;;;;;5.03;4.53;;;44.50;37.00;;;;;;4950605;29;20492;-90
2021/08/11 12:15:43;;;;;;;4.50;4.10;;;44.90;35.60;;;;;;4947007;29;20472;-89
2021/08/11 12:18:16;;;;;;;5.00;4.30;;;44.10;36.60;;;;;;4949478;29;20561;-90
2021/08/11 12:20:44;;;;;;;5.60;5.10;;;41.90;37.80;;;;;;4949222;29;21049;-90
2021/08/11 12:23:24;;;;;;;6.80;4.70;;;39.70;40.60;;;;;;4950917;29;20449;-90
2021/08/11 12:25:52;;;;;;;5.50;4.97;;;38.10;43.70;;;;;;4948635;29;20458;-89
2021/08/11 12:28:26;;;;;;;5.40;4.83;;;36.60;45.80;;;;;;4949490;29;20521;-90
2021/08/11 12:31:03;;;;;;;5.67;5.17;;;35.40;47.70;;;;;;4950060;29;20464;-91
2021/08/11 12:33:35;;;;;;;5.60;4.80;;;34.60;49.50;;;;;;4953586;29;20513;-91
2021/08/11 12:36:05;;;;;;;4.70;4.30;;;34.30;51.00;;;;;;4950233;29;20529;-90
2021/08/11 12:38:38;;;;;;;5.20;4.80;;;33.80;51.30;;;;;;4957603;29;20556;-90
2021/08/11 12:41:18;;;;;;;4.57;4.27;;;33.90;51.60;;;;;;4949402;29;20454;-90
2021/08/11 12:43:47;;;;;;;7.37;4.13;;;35.00;50.60;;;;;;4947971;29;20453;-91
2021/08/11 12:46:14;;;;;;;5.37;4.20;;;36.10;48.10;;;;;;4948543;29;20517;-91
2021/08/11 12:48:42;;;;;;;7.30;3.97;;;38.40;46.10;;;;;;4946728;29;20473;-91
2021/08/11 12:51:20;;;;;;;5.70;4.60;;;39.60;43.50;;;;;;4946369;29;20471;-91
2021/08/11 12:54:03;;;;;;;5.37;4.60;;;38.10;44.50;;;;;;4948117;29;20935;-90
2021/08/11 12:56:29;;;;;;;5.17;4.77;;;36.20;47.30;;;;;;4946816;29;20529;-91
2021/08/11 12:59:02;;;;;;;5.93;4.57;;;34.30;50.70;;;;;;4946398;29;20473;-90
2021/08/11 13:01:36;;;;;;;5.80;4.63;;;35.10;51.10;;;;;;4947863;29;20461;-91
2021/08/11 13:04:04;;;;;;;4.53;4.13;;;37.20;48.00;;;;;;4947924;29;20461;-90
2021/08/11 13:06:36;;;;;;;6.40;4.20;;;39.20;45.80;;;;;;4942231;29;20952;-90
2021/08/11 13:09:05;;;;;;;5.13;4.60;;;40.30;42.80;;;;;;4941575;29;20473;-91
2021/08/11 13:11:59;;;;;;;5.60;5.13;;;41.40;40.60;;;;;;4941446;29;20466;-91
2021/08/11 13:14:47;;;;;;;6.73;6.13;;;41.50;39.60;;;;;;4943005;29;20462;-91
2021/08/11 13:17:17;;;;;;;5.13;4.63;;;41.00;39.80;;;;;;4942606;29;20487;-90
2021/08/11 13:19:46;;;;;;;4.70;4.30;;;39.80;40.60;;;;;;4941047;29;20661;-91
2021/08/11 13:22:23;;;;;;;5.50;5.00;;;38.00;42.80;;;;;;4943423;29;20529;-92
2021/08/11 13:24:52;;;;;;;4.30;3.90;;;36.80;44.90;;;;;;4953783;29;20442;-90
2021/08/11 13:27:20;;;;;;;6.80;4.70;;;37.10;45.00;;;;;;4942833;29;20445;-91
2021/08/11 13:29:47;;;;;;;8.23;4.50;;;38.80;44.00;;;;;;4942673;29;21056;-91
2021/08/11 13:32:14;;;;;;;5.80;4.07;;;38.50;42.90;;;;;;4944312;29;20461;-91
2021/08/11 13:34:41;;;;;;;5.33;4.60;;;37.30;44.30;;;;;;4942036;29;20541;-89
2021/08/11 13:37:08;;;;;;;4.70;4.30;;;36.90;45.40;;;;;;4947658;29;20457;-90
2021/08/11 13:39:35;;;;;;;4.50;4.20;;;38.10;43.90;;;;;;4956125;29;20478;-90
2021/08/11 13:42:03;;;;;;;5.97;4.70;;;38.60;43.90;;;;;;4958281;29;20445;-91
2021/08/11 13:44:30;;;;;;;4.30;3.90;;;39.50;42.30;;;;;;4954384;29;20947;-90
2021/08/11 13:46:56;;;;;;;4.27;3.90;;;39.30;41.90;;;;;;4947990;29;20452;-90